sensor_id;sensor_type;location;lat;lon;timestamp;pressure;altitude;pressure_sealevel;temperature;humidity
59110;BME280;44895;47.438;18.978;2022-10-31T00:02:53;100748.38;;;11.31;100.00
59110;BME280;44895;47.438;18.978;2022-10-31T00:05:57;100749.97;;;11.32;100.00
59110;BME280;44895;47.438;18.978;2022-10-31T00:09:03;100753.81;;;11.31;100.00
59110;BME280;44895;47.438;18.978;2022-10-31T00:12:07;100751.09;;;11.31;100.00
59110;BME280;44895;47.438;18.978;2022-10-31T00:15:11;100747.34;;;11.22;100.00
59110;BME280;44895;47.438;18.978;2022-10-31T00:18:14;100746.81;;;11.20;100.00
59110;BME280;44895;47.438;18.978;2022-10-31T00:21:19;100747.63;;;11.20;100.00
59110;BME280;44895;47.438;18.978;2022-10-31T00:24:23;100741.97;;;11.12;100.00
59110;BME280;44895;47.438;18.978;2022-10-31T00:27:27;100746.00;;;11.19;100.00
59110;BME280;44895;47.438;18.978;2022-10-31T00:30:32;100747.09;;;11.13;100.00
59110;BME280;44895;47.438;18.978;2022-10-31T00:33:36;100741.97;;;11.12;100.00
59110;BME280;44895;47.438;18.978;2022-10-31T00:36:41;100736.28;;;11.08;100.00
59110;BME280;44895;47.438;18.978;2022-10-31T00:39:48;100737.59;;;11.10;100.00
59110;BME280;44895;47.438;18.978;2022-10-31T00:42:52;100734.38;;;11.08;100.00
59110;BME280;44895;47.438;18.978;2022-10-31T00:45:56;100728.88;;;11.19;100.00
59110;BME280;44895;47.438;18.978;2022-10-31T00:49:01;100723.44;;;11.19;100.00
59110;BME280;44895;47.438;18.978;2022-10-31T00:52:05;100725.06;;;11.20;100.00
59110;BME280;44895;47.438;18.978;2022-10-31T00:55:09;100718.00;;;11.19;100.00
59110;BME280;44895;47.438;18.978;2022-10-31T00:58:12;100722.38;;;11.09;100.00
59110;BME280;44895;47.438;18.978;2022-10-31T01:01:16;100722.38;;;11.09;100.00
59110;BME280;44895;47.438;18.978;2022-10-31T01:04:20;100718.56;;;11.16;100.00
59110;BME280;44895;47.438;18.978;2022-10-31T01:07:23;100714.69;;;11.22;100.00
59110;BME280;44895;47.438;18.978;2022-10-31T01:10:27;100714.97;;;11.25;100.00
59110;BME280;44895;47.438;18.978;2022-10-31T01:13:31;100707.84;;;11.30;100.00
59110;BME280;44895;47.438;18.978;2022-10-31T01:16:34;100718.47;;;11.31;100.00
59110;BME280;44895;47.438;18.978;2022-10-31T01:19:39;100710.09;;;11.22;100.00
59110;BME280;44895;47.438;18.978;2022-10-31T01:22:43;100710.31;;;11.26;100.00
59110;BME280;44895;47.438;18.978;2022-10-31T01:25:46;100698.09;;;11.23;100.00
59110;BME280;44895;47.438;18.978;2022-10-31T01:28:52;100705.13;;;10.90;100.00
59110;BME280;44895;47.438;18.978;2022-10-31T01:31:56;100706.16;;;10.99;100.00
59110;BME280;44895;47.438;18.978;2022-10-31T01:35:00;100712.94;;;11.02;100.00
59110;BME280;44895;47.438;18.978;2022-10-31T01:38:04;100711.06;;;10.97;100.00
59110;BME280;44895;47.438;18.978;2022-10-31T01:41:09;100699.94;;;10.93;100.00
59110;BME280;44895;47.438;18.978;2022-10-31T01:47:20;100704.56;;;10.88;100.00
59110;BME280;44895;47.438;18.978;2022-10-31T01:50:34;100712.47;;;10.89;100.00
59110;BME280;44895;47.438;18.978;2022-10-31T01:53:42;100709.69;;;11.00;100.00
59110;BME280;44895;47.438;18.978;2022-10-31T01:56:50;100702.09;;;10.97;100.00
59110;BME280;44895;47.438;18.978;2022-10-31T01:59:58;100709.19;;;10.92;100.00
59110;BME280;44895;47.438;18.978;2022-10-31T02:03:02;100707.06;;;10.79;100.00
59110;BME280;44895;47.438;18.978;2022-10-31T02:06:10;100695.94;;;10.81;100.00
59110;BME280;44895;47.438;18.978;2022-10-31T02:09:19;100700.81;;;10.84;100.00
59110;BME280;44895;47.438;18.978;2022-10-31T02:12:27;100696.69;;;10.91;100.00
59110;BME280;44895;47.438;18.978;2022-10-31T02:15:37;100694.81;;;10.82;100.00
59110;BME280;44895;47.438;18.978;2022-10-31T02:18:41;100692.06;;;10.92;100.00
59110;BME280;44895;47.438;18.978;2022-10-31T02:21:58;100691.84;;;10.83;100.00
59110;BME280;44895;47.438;18.978;2022-10-31T02:29:00;100688.47;;;11.02;100.00
59110;BME280;44895;47.438;18.978;2022-10-31T02:39:25;100694.84;;;10.76;100.00
59110;BME280;44895;47.438;18.978;2022-10-31T02:42:34;100694.59;;;10.78;100.00
59110;BME280;44895;47.438;18.978;2022-10-31T02:48:47;100702.19;;;10.81;100.00
59110;BME280;44895;47.438;18.978;2022-10-31T02:51:52;100708.94;;;10.89;100.00
59110;BME280;44895;47.438;18.978;2022-10-31T02:54:56;100705.72;;;10.76;100.00
59110;BME280;44895;47.438;18.978;2022-10-31T02:58:08;100713.31;;;10.85;100.00
59110;BME280;44895;47.438;18.978;2022-10-31T03:04:55;100703.25;;;10.85;100.00
59110;BME280;44895;47.438;18.978;2022-10-31T03:08:23;100710.25;;;10.97;100.00
59110;BME280;44895;47.438;18.978;2022-10-31T03:11:32;100695.88;;;10.91;100.00
59110;BME280;44895;47.438;18.978;2022-10-31T03:18:03;100704.22;;;11.05;100.00
59110;BME280;44895;47.438;18.978;2022-10-31T03:21:14;100714.41;;;10.79;100.00
59110;BME280;44895;47.438;18.978;2022-10-31T03:24:18;100713.28;;;10.90;100.00
59110;BME280;44895;47.438;18.978;2022-10-31T03:27:26;100718.94;;;10.99;100.00
59110;BME280;44895;47.438;18.978;2022-10-31T03:30:32;100716.25;;;10.93;100.00
59110;BME280;44895;47.438;18.978;2022-10-31T03:33:38;100720.09;;;10.87;100.00
59110;BME280;44895;47.438;18.978;2022-10-31T03:36:44;100723.34;;;10.84;100.00
59110;BME280;44895;47.438;18.978;2022-10-31T03:39:49;100710.66;;;10.74;100.00
59110;BME280;44895;47.438;18.978;2022-10-31T03:43:00;100725.28;;;10.79;100.00
59110;BME280;44895;47.438;18.978;2022-10-31T03:46:05;100716.78;;;10.90;100.00
59110;BME280;44895;47.438;18.978;2022-10-31T03:49:10;100720.34;;;10.91;100.00
59110;BME280;44895;47.438;18.978;2022-10-31T03:52:28;100714.84;;;11.01;100.00
59110;BME280;44895;47.438;18.978;2022-10-31T03:58:50;100725.94;;;11.10;100.00
59110;BME280;44895;47.438;18.978;2022-10-31T04:01:58;100725.97;;;11.05;100.00
59110;BME280;44895;47.438;18.978;2022-10-31T04:05:05;100726.06;;;10.84;100.00
59110;BME280;44895;47.438;18.978;2022-10-31T04:08:12;100727.91;;;10.94;100.00
59110;BME280;44895;47.438;18.978;2022-10-31T04:11:21;100726.00;;;11.00;100.00
59110;BME280;44895;47.438;18.978;2022-10-31T04:14:48;100736.53;;;11.12;100.00
59110;BME280;44895;47.438;18.978;2022-10-31T04:17:55;100737.72;;;10.95;100.00
59110;BME280;44895;47.438;18.978;2022-10-31T04:21:05;100731.72;;;10.93;100.00
59110;BME280;44895;47.438;18.978;2022-10-31T04:24:09;100723.13;;;10.81;100.00
59110;BME280;44895;47.438;18.978;2022-10-31T04:27:13;100735.63;;;10.76;100.00
59110;BME280;44895;47.438;18.978;2022-10-31T04:30:17;100743.81;;;10.66;100.00
59110;BME280;44895;47.438;18.978;2022-10-31T04:33:21;100740.53;;;10.74;100.00
59110;BME280;44895;47.438;18.978;2022-10-31T04:36:24;100745.38;;;10.83;100.00
59110;BME280;44895;47.438;18.978;2022-10-31T04:39:28;100752.66;;;10.92;100.00
59110;BME280;44895;47.438;18.978;2022-10-31T04:42:54;100751.56;;;10.93;100.00
59110;BME280;44895;47.438;18.978;2022-10-31T04:45:58;100752.69;;;10.87;100.00
59110;BME280;44895;47.438;18.978;2022-10-31T04:49:02;100750.91;;;10.62;100.00
59110;BME280;44895;47.438;18.978;2022-10-31T04:52:06;100748.31;;;10.91;100.00
59110;BME280;44895;47.438;18.978;2022-10-31T04:55:13;100749.56;;;11.09;100.00
59110;BME280;44895;47.438;18.978;2022-10-31T04:58:22;100746.59;;;11.11;100.00
59110;BME280;44895;47.438;18.978;2022-10-31T05:01:27;100747.41;;;11.12;100.00
59110;BME280;44895;47.438;18.978;2022-10-31T05:04:32;100755.75;;;10.75;100.00
59110;BME280;44895;47.438;18.978;2022-10-31T05:07:40;100753.47;;;10.93;100.00
59110;BME280;44895;47.438;18.978;2022-10-31T05:10:44;100757.78;;;10.99;100.00
59110;BME280;44895;47.438;18.978;2022-10-31T05:13:48;100758.06;;;10.98;100.00
59110;BME280;44895;47.438;18.978;2022-10-31T05:16:52;100757.00;;;10.99;100.00
59110;BME280;44895;47.438;18.978;2022-10-31T05:20:15;100745.66;;;10.81;100.00
59110;BME280;44895;47.438;18.978;2022-10-31T05:23:38;100757.28;;;10.97;100.00
59110;BME280;44895;47.438;18.978;2022-10-31T05:26:43;100746.97;;;10.89;100.00
59110;BME280;44895;47.438;18.978;2022-10-31T05:29:47;100759.47;;;10.90;100.00
59110;BME280;44895;47.438;18.978;2022-10-31T05:32:51;100760.53;;;10.94;100.00
59110;BME280;44895;47.438;18.978;2022-10-31T05:36:14;100751.28;;;10.95;100.00
59110;BME280;44895;47.438;18.978;2022-10-31T05:39:38;100748.66;;;10.80;100.00
59110;BME280;44895;47.438;18.978;2022-10-31T05:42:51;100748.53;;;11.00;100.00
59110;BME280;44895;47.438;18.978;2022-10-31T05:45:55;100756.75;;;10.90;100.00
59110;BME280;44895;47.438;18.978;2022-10-31T05:49:19;100773.66;;;10.71;100.00
59110;BME280;44895;47.438;18.978;2022-10-31T05:52:41;100765.75;;;10.85;100.00
59110;BME280;44895;47.438;18.978;2022-10-31T05:55:55;100763.50;;;10.98;100.00
59110;BME280;44895;47.438;18.978;2022-10-31T05:59:00;100771.72;;;10.87;100.00
59110;BME280;44895;47.438;18.978;2022-10-31T06:02:04;100768.66;;;10.99;100.00
59110;BME280;44895;47.438;18.978;2022-10-31T06:05:28;100789.59;;;10.99;100.00
59110;BME280;44895;47.438;18.978;2022-10-31T06:08:32;100773.81;;;11.06;100.00
59110;BME280;44895;47.438;18.978;2022-10-31T06:11:40;100773.63;;;10.82;100.00
59110;BME280;44895;47.438;18.978;2022-10-31T06:15:04;100769.53;;;10.95;100.00
59110;BME280;44895;47.438;18.978;2022-10-31T06:18:09;100783.34;;;10.98;100.00
59110;BME280;44895;47.438;18.978;2022-10-31T06:21:22;100778.09;;;11.12;100.00
59110;BME280;44895;47.438;18.978;2022-10-31T06:24:28;100771.66;;;10.98;100.00
59110;BME280;44895;47.438;18.978;2022-10-31T06:27:38;100770.84;;;11.02;100.00
59110;BME280;44895;47.438;18.978;2022-10-31T06:30:48;100769.75;;;10.98;100.00
59110;BME280;44895;47.438;18.978;2022-10-31T06:33:53;100778.84;;;11.28;100.00
59110;BME280;44895;47.438;18.978;2022-10-31T06:36:56;100774.13;;;10.94;100.00
59110;BME280;44895;47.438;18.978;2022-10-31T06:40:02;100771.38;;;10.99;100.00
59110;BME280;44895;47.438;18.978;2022-10-31T06:43:11;100784.69;;;11.06;100.00
59110;BME280;44895;47.438;18.978;2022-10-31T06:46:16;100785.16;;;11.13;100.00
59110;BME280;44895;47.438;18.978;2022-10-31T06:49:27;100786.25;;;11.12;100.00
59110;BME280;44895;47.438;18.978;2022-10-31T06:52:32;100796.25;;;11.27;100.00
59110;BME280;44895;47.438;18.978;2022-10-31T06:55:35;100797.03;;;11.33;100.00
59110;BME280;44895;47.438;18.978;2022-10-31T06:58:40;100797.00;;;11.38;100.00
59110;BME280;44895;47.438;18.978;2022-10-31T07:01:46;100789.84;;;11.07;100.00
59110;BME280;44895;47.438;18.978;2022-10-31T07:04:49;100801.28;;;10.99;100.00
59110;BME280;44895;47.438;18.978;2022-10-31T07:07:59;100810.94;;;11.21;100.00
59110;BME280;44895;47.438;18.978;2022-10-31T07:11:05;100807.38;;;11.31;100.00
59110;BME280;44895;47.438;18.978;2022-10-31T07:14:09;100808.19;;;11.36;100.00
59110;BME280;44895;47.438;18.978;2022-10-31T07:17:13;100806.47;;;10.90;100.00
59110;BME280;44895;47.438;18.978;2022-10-31T07:20:20;100815.75;;;10.89;100.00
59110;BME280;44895;47.438;18.978;2022-10-31T07:23:24;100815.03;;;11.23;100.00
59110;BME280;44895;47.438;18.978;2022-10-31T07:26:47;100821.06;;;11.15;100.00
59110;BME280;44895;47.438;18.978;2022-10-31T07:29:52;100825.50;;;11.46;100.00
59110;BME280;44895;47.438;18.978;2022-10-31T07:32:56;100825.03;;;11.33;100.00
59110;BME280;44895;47.438;18.978;2022-10-31T07:36:02;100821.50;;;11.33;100.00
59110;BME280;44895;47.438;18.978;2022-10-31T07:39:07;100814.44;;;11.32;100.00
59110;BME280;44895;47.438;18.978;2022-10-31T07:42:12;100807.72;;;11.19;100.00
59110;BME280;44895;47.438;18.978;2022-10-31T07:45:21;100813.66;;;11.26;100.00
59110;BME280;44895;47.438;18.978;2022-10-31T07:48:43;100811.50;;;11.23;100.00
59110;BME280;44895;47.438;18.978;2022-10-31T07:52:06;100815.03;;;11.29;100.00
59110;BME280;44895;47.438;18.978;2022-10-31T07:55:28;100818.00;;;11.27;100.00
59110;BME280;44895;47.438;18.978;2022-10-31T07:58:35;100812.00;;;11.30;100.00
59110;BME280;44895;47.438;18.978;2022-10-31T08:01:39;100808.63;;;11.49;100.00
59110;BME280;44895;47.438;18.978;2022-10-31T08:05:01;100810.25;;;11.50;100.00
59110;BME280;44895;47.438;18.978;2022-10-31T08:08:24;100821.72;;;11.47;100.00
59110;BME280;44895;47.438;18.978;2022-10-31T08:11:28;100819.50;;;11.49;100.00
59110;BME280;44895;47.438;18.978;2022-10-31T08:14:32;100817.97;;;11.32;100.00
59110;BME280;44895;47.438;18.978;2022-10-31T08:17:36;100819.78;;;11.47;100.00
59110;BME280;44895;47.438;18.978;2022-10-31T08:20:41;100820.88;;;11.46;100.00
59110;BME280;44895;47.438;18.978;2022-10-31T08:23:46;100819.41;;;11.64;100.00
59110;BME280;44895;47.438;18.978;2022-10-31T08:26:51;100821.75;;;11.41;100.00
59110;BME280;44895;47.438;18.978;2022-10-31T08:29:55;100827.41;;;11.50;100.00
59110;BME280;44895;47.438;18.978;2022-10-31T08:33:21;100811.22;;;11.69;100.00
59110;BME280;44895;47.438;18.978;2022-10-31T08:36:43;100813.41;;;11.67;100.00
59110;BME280;44895;47.438;18.978;2022-10-31T08:39:59;100805.75;;;11.74;100.00
59110;BME280;44895;47.438;18.978;2022-10-31T08:43:05;100817.22;;;11.66;100.00
59110;BME280;44895;47.438;18.978;2022-10-31T08:46:09;100816.28;;;11.41;100.00
59110;BME280;44895;47.438;18.978;2022-10-31T08:49:14;100815.34;;;11.62;100.00
59110;BME280;44895;47.438;18.978;2022-10-31T08:52:23;100824.06;;;11.58;100.00
59110;BME280;44895;47.438;18.978;2022-10-31T08:55:27;100817.50;;;11.65;100.00
59110;BME280;44895;47.438;18.978;2022-10-31T08:58:44;100819.06;;;11.76;100.00
59110;BME280;44895;47.438;18.978;2022-10-31T09:01:48;100824.47;;;11.81;100.00
59110;BME280;44895;47.438;18.978;2022-10-31T09:04:52;100827.28;;;11.66;100.00
59110;BME280;44895;47.438;18.978;2022-10-31T09:07:57;100812.16;;;11.89;100.00
59110;BME280;44895;47.438;18.978;2022-10-31T09:11:02;100831.00;;;11.80;100.00
59110;BME280;44895;47.438;18.978;2022-10-31T09:14:25;100826.47;;;11.65;100.00
59110;BME280;44895;47.438;18.978;2022-10-31T09:17:48;100827.81;;;11.68;100.00
59110;BME280;44895;47.438;18.978;2022-10-31T09:21:04;100828.34;;;11.70;100.00
59110;BME280;44895;47.438;18.978;2022-10-31T09:24:08;100832.91;;;11.80;100.00
59110;BME280;44895;47.438;18.978;2022-10-31T09:27:12;100820.47;;;11.68;100.00
59110;BME280;44895;47.438;18.978;2022-10-31T09:30:18;100832.59;;;11.47;100.00
59110;BME280;44895;47.438;18.978;2022-10-31T09:33:22;100837.69;;;11.53;100.00
59110;BME280;44895;47.438;18.978;2022-10-31T09:36:40;100840.16;;;11.50;100.00
59110;BME280;44895;47.438;18.978;2022-10-31T09:39:52;100843.06;;;11.64;100.00
59110;BME280;44895;47.438;18.978;2022-10-31T09:46:33;100846.94;;;11.52;100.00
59110;BME280;44895;47.438;18.978;2022-10-31T09:50:36;100847.22;;;11.56;100.00
59110;BME280;44895;47.438;18.978;2022-10-31T09:53:40;100839.47;;;11.73;100.00
59110;BME280;44895;47.438;18.978;2022-10-31T09:56:47;100834.13;;;11.63;100.00
59110;BME280;44895;47.438;18.978;2022-10-31T09:59:51;100837.56;;;11.74;100.00
59110;BME280;44895;47.438;18.978;2022-10-31T10:03:03;100838.47;;;11.64;100.00
59110;BME280;44895;47.438;18.978;2022-10-31T10:09:36;100838.63;;;11.33;100.00
59110;BME280;44895;47.438;18.978;2022-10-31T10:26:19;100833.59;;;11.56;100.00
59110;BME280;44895;47.438;18.978;2022-10-31T10:33:10;100819.75;;;11.52;100.00
59110;BME280;44895;47.438;18.978;2022-10-31T10:36:25;100827.91;;;11.52;100.00
59110;BME280;44895;47.438;18.978;2022-10-31T10:42:38;100818.94;;;11.91;100.00
59110;BME280;44895;47.438;18.978;2022-10-31T10:46:15;100808.66;;;11.83;100.00
59110;BME280;44895;47.438;18.978;2022-10-31T10:49:45;100808.91;;;11.87;100.00
59110;BME280;44895;47.438;18.978;2022-10-31T10:53:05;100805.69;;;11.80;100.00
59110;BME280;44895;47.438;18.978;2022-10-31T10:56:17;100811.19;;;11.74;100.00
59110;BME280;44895;47.438;18.978;2022-10-31T10:59:24;100806.41;;;11.56;100.00
59110;BME280;44895;47.438;18.978;2022-10-31T11:02:31;100808.53;;;11.64;100.00
59110;BME280;44895;47.438;18.978;2022-10-31T11:05:52;100812.31;;;11.68;100.00
59110;BME280;44895;47.438;18.978;2022-10-31T11:08:56;100801.22;;;11.59;100.00
59110;BME280;44895;47.438;18.978;2022-10-31T11:12:07;100811.22;;;11.69;100.00
59110;BME280;44895;47.438;18.978;2022-10-31T11:15:21;100804.41;;;11.72;100.00
59110;BME280;44895;47.438;18.978;2022-10-31T11:18:29;100803.59;;;11.66;100.00
59110;BME280;44895;47.438;18.978;2022-10-31T11:21:33;100800.28;;;11.74;100.00
59110;BME280;44895;47.438;18.978;2022-10-31T11:24:40;100797.53;;;11.80;100.00
59110;BME280;44895;47.438;18.978;2022-10-31T11:27:44;100791.84;;;11.76;100.00
59110;BME280;44895;47.438;18.978;2022-10-31T11:30:57;100793.47;;;11.77;100.00
59110;BME280;44895;47.438;18.978;2022-10-31T11:34:04;100787.88;;;11.63;100.00
59110;BME280;44895;47.438;18.978;2022-10-31T11:37:13;100795.31;;;11.82;100.00
59110;BME280;44895;47.438;18.978;2022-10-31T11:40:23;100795.00;;;11.88;100.00
59110;BME280;44895;47.438;18.978;2022-10-31T11:43:27;100791.75;;;11.52;100.00
59110;BME280;44895;47.438;18.978;2022-10-31T11:46:39;100783.72;;;11.71;100.00
59110;BME280;44895;47.438;18.978;2022-10-31T11:49:47;100787.69;;;11.84;100.00
59110;BME280;44895;47.438;18.978;2022-10-31T11:52:54;100784.38;;;11.52;100.00
59110;BME280;44895;47.438;18.978;2022-10-31T11:56:10;100791.28;;;11.39;100.00
59110;BME280;44895;47.438;18.978;2022-10-31T11:59:31;100797.88;;;11.73;100.00
59110;BME280;44895;47.438;18.978;2022-10-31T12:02:35;100789.63;;;11.43;100.00
59110;BME280;44895;47.438;18.978;2022-10-31T12:05:41;100792.25;;;11.59;100.00
59110;BME280;44895;47.438;18.978;2022-10-31T12:08:46;100784.81;;;11.70;100.00
59110;BME280;44895;47.438;18.978;2022-10-31T12:15:30;100796.75;;;11.74;100.00
59110;BME280;44895;47.438;18.978;2022-10-31T12:18:57;100793.84;;;11.20;100.00
59110;BME280;44895;47.438;18.978;2022-10-31T12:26:13;100785.75;;;11.50;100.00
59110;BME280;44895;47.438;18.978;2022-10-31T12:29:27;100800.22;;;11.45;100.00
59110;BME280;44895;47.438;18.978;2022-10-31T12:33:23;100784.91;;;11.15;100.00
59110;BME280;44895;47.438;18.978;2022-10-31T12:37:10;100783.81;;;11.61;100.00
59110;BME280;44895;47.438;18.978;2022-10-31T13:00:07;100789.69;;;11.33;100.00
59110;BME280;44895;47.438;18.978;2022-10-31T13:03:38;100781.44;;;11.43;100.00
59110;BME280;44895;47.438;18.978;2022-10-31T13:06:50;100782.50;;;11.53;100.00
59110;BME280;44895;47.438;18.978;2022-10-31T13:10:15;100773.00;;;11.50;100.00
59110;BME280;44895;47.438;18.978;2022-10-31T13:13:27;100775.19;;;11.48;100.00
59110;BME280;44895;47.438;18.978;2022-10-31T13:16:41;100771.31;;;11.54;100.00
59110;BME280;44895;47.438;18.978;2022-10-31T13:19:47;100771.66;;;11.48;100.00
59110;BME280;44895;47.438;18.978;2022-10-31T13:22:55;100773.22;;;11.59;100.00
59110;BME280;44895;47.438;18.978;2022-10-31T13:26:06;100776.44;;;11.61;100.00
59110;BME280;44895;47.438;18.978;2022-10-31T13:32:58;100767.84;;;11.43;100.00
59110;BME280;44895;47.438;18.978;2022-10-31T13:39:34;100768.97;;;11.42;100.00
59110;BME280;44895;47.438;18.978;2022-10-31T13:43:04;100771.56;;;11.58;100.00
59110;BME280;44895;47.438;18.978;2022-10-31T13:46:42;100772.25;;;11.39;100.00
59110;BME280;44895;47.438;18.978;2022-10-31T13:49:46;100764.16;;;11.29;100.00
59110;BME280;44895;47.438;18.978;2022-10-31T13:52:50;100780.72;;;11.33;100.00
59110;BME280;44895;47.438;18.978;2022-10-31T13:59:52;100770.16;;;11.21;100.00
59110;BME280;44895;47.438;18.978;2022-10-31T14:02:59;100760.38;;;11.25;100.00
59110;BME280;44895;47.438;18.978;2022-10-31T14:06:08;100761.44;;;11.29;100.00
59110;BME280;44895;47.438;18.978;2022-10-31T14:09:35;100766.72;;;11.10;100.00
59110;BME280;44895;47.438;18.978;2022-10-31T14:12:45;100769.94;;;11.12;100.00
59110;BME280;44895;47.438;18.978;2022-10-31T14:16:22;100767.47;;;11.16;100.00
59110;BME280;44895;47.438;18.978;2022-10-31T14:19:27;100777.31;;;11.12;100.00
59110;BME280;44895;47.438;18.978;2022-10-31T14:22:32;100774.09;;;10.99;100.00
59110;BME280;44895;47.438;18.978;2022-10-31T14:25:37;100769.75;;;10.98;100.00
59110;BME280;44895;47.438;18.978;2022-10-31T14:28:41;100776.31;;;10.92;100.00
59110;BME280;44895;47.438;18.978;2022-10-31T14:31:53;100769.41;;;11.15;100.00
59110;BME280;44895;47.438;18.978;2022-10-31T14:34:57;100778.34;;;11.16;100.00
59110;BME280;44895;47.438;18.978;2022-10-31T14:38:15;100776.16;;;11.23;100.00
59110;BME280;44895;47.438;18.978;2022-10-31T14:48:10;100772.97;;;11.05;100.00
59110;BME280;44895;47.438;18.978;2022-10-31T14:51:20;100768.81;;;11.18;100.00
59110;BME280;44895;47.438;18.978;2022-10-31T14:54:32;100771.84;;;11.17;100.00
59110;BME280;44895;47.438;18.978;2022-10-31T14:57:38;100769.09;;;11.22;100.00
59110;BME280;44895;47.438;18.978;2022-10-31T15:00:46;100765.88;;;11.15;100.00
59110;BME280;44895;47.438;18.978;2022-10-31T15:03:50;100768.81;;;11.18;100.00
59110;BME280;44895;47.438;18.978;2022-10-31T15:07:04;100759.88;;;11.18;100.00
59110;BME280;44895;47.438;18.978;2022-10-31T15:10:25;100765.69;;;11.01;100.00
59110;BME280;44895;47.438;18.978;2022-10-31T15:13:29;100765.56;;;11.21;100.00
59110;BME280;44895;47.438;18.978;2022-10-31T15:16:35;100759.84;;;11.23;100.00
59110;BME280;44895;47.438;18.978;2022-10-31T15:19:43;100763.34;;;11.23;100.00
59110;BME280;44895;47.438;18.978;2022-10-31T15:22:48;100756.59;;;11.16;100.00
59110;BME280;44895;47.438;18.978;2022-10-31T15:26:01;100758.84;;;11.08;100.00
59110;BME280;44895;47.438;18.978;2022-10-31T15:29:13;100761.69;;;10.83;100.00
59110;BME280;44895;47.438;18.978;2022-10-31T15:32:27;100767.03;;;10.98;100.00
59110;BME280;44895;47.438;18.978;2022-10-31T15:35:31;100757.75;;;11.04;100.00
59110;BME280;44895;47.438;18.978;2022-10-31T15:38:34;100761.38;;;10.95;100.00
59110;BME280;44895;47.438;18.978;2022-10-31T15:41:52;100767.84;;;11.04;100.00
59110;BME280;44895;47.438;18.978;2022-10-31T15:45:05;100772.47;;;11.03;100.00
59110;BME280;44895;47.438;18.978;2022-10-31T15:48:23;100773.34;;;10.88;100.00
59110;BME280;44895;47.438;18.978;2022-10-31T15:51:31;100780.38;;;11.00;100.00
59110;BME280;44895;47.438;18.978;2022-10-31T15:54:46;100785.50;;;11.01;100.00
59110;BME280;44895;47.438;18.978;2022-10-31T15:57:56;100788.78;;;10.93;100.00
59110;BME280;44895;47.438;18.978;2022-10-31T16:01:04;100787.22;;;10.82;100.00
59110;BME280;44895;47.438;18.978;2022-10-31T16:07:17;100784.47;;;10.92;100.00
59110;BME280;44895;47.438;18.978;2022-10-31T16:10:25;100797.81;;;10.83;100.00
59110;BME280;44895;47.438;18.978;2022-10-31T16:13:34;100788.63;;;10.69;100.00
59110;BME280;44895;47.438;18.978;2022-10-31T16:16:45;100792.09;;;10.90;100.00
59110;BME280;44895;47.438;18.978;2022-10-31T16:22:59;100801.06;;;10.85;100.00
59110;BME280;44895;47.438;18.978;2022-10-31T16:26:07;100802.22;;;10.64;100.00
59110;BME280;44895;47.438;18.978;2022-10-31T16:29:25;100805.78;;;10.54;100.00
59110;BME280;44895;47.438;18.978;2022-10-31T16:35:38;100801.88;;;10.91;100.00
59110;BME280;44895;47.438;18.978;2022-10-31T16:38:42;100810.03;;;10.91;100.00
59110;BME280;44895;47.438;18.978;2022-10-31T16:41:51;100808.47;;;10.69;100.00
59110;BME280;44895;47.438;18.978;2022-10-31T16:44:55;100812.81;;;10.75;100.00
59110;BME280;44895;47.438;18.978;2022-10-31T16:48:10;100812.72;;;10.96;100.00
59110;BME280;44895;47.438;18.978;2022-10-31T16:51:14;100817.66;;;10.84;100.00
59110;BME280;44895;47.438;18.978;2022-10-31T16:54:18;100815.94;;;10.98;100.00
59110;BME280;44895;47.438;18.978;2022-10-31T16:57:27;100824.38;;;10.97;100.00
59110;BME280;44895;47.438;18.978;2022-10-31T17:00:32;100817.63;;;10.89;100.00
59110;BME280;44895;47.438;18.978;2022-10-31T17:03:36;100824.16;;;10.88;100.00
59110;BME280;44895;47.438;18.978;2022-10-31T17:06:41;100823.09;;;10.84;100.00
59110;BME280;44895;47.438;18.978;2022-10-31T17:09:45;100825.25;;;10.82;100.00
59110;BME280;44895;47.438;18.978;2022-10-31T17:12:49;100822.78;;;10.90;100.00
59110;BME280;44895;47.438;18.978;2022-10-31T17:15:58;100818.03;;;10.56;100.00
59110;BME280;44895;47.438;18.978;2022-10-31T17:19:01;100823.66;;;10.75;100.00
59110;BME280;44895;47.438;18.978;2022-10-31T17:22:05;100843.28;;;10.57;100.00
59110;BME280;44895;47.438;18.978;2022-10-31T17:25:14;100836.19;;;10.66;100.00
59110;BME280;44895;47.438;18.978;2022-10-31T17:28:18;100836.13;;;10.76;100.00
59110;BME280;44895;47.438;18.978;2022-10-31T17:31:27;100842.69;;;10.70;100.00
59110;BME280;44895;47.438;18.978;2022-10-31T17:34:31;100830.47;;;10.63;100.00
59110;BME280;44895;47.438;18.978;2022-10-31T17:37:35;100835.09;;;10.67;100.00
59110;BME280;44895;47.438;18.978;2022-10-31T17:40:39;100839.97;;;10.65;100.00
59110;BME280;44895;47.438;18.978;2022-10-31T17:43:44;100834.28;;;10.72;100.00
59110;BME280;44895;47.438;18.978;2022-10-31T17:46:48;100830.19;;;10.74;100.00
59110;BME280;44895;47.438;18.978;2022-10-31T17:49:52;100831.00;;;10.70;100.00
59110;BME280;44895;47.438;18.978;2022-10-31T17:52:57;100828.00;;;10.71;100.00
59110;BME280;44895;47.438;18.978;2022-10-31T17:56:06;100831.84;;;10.60;100.00